Time;durP1;ratioP1;P1;durP2;ratioP2;P2;SDS_P1;SDS_P2;PMS_P1;PMS_P2;Temp;Humidity;BMP_temperature;BMP_pressure;BME280_temperature;BME280_humidity;BME280_pressure;Samples;Min_cycle;Max_cycle;Signal;HPM_P1;HPM_P2
2022/05/16 00:00:01;;;;;;;0.10;0.10;;;;;;;;;;6198792;23;20220;-83
2022/05/16 00:02:27;;;;;;;0.00;0.00;;;;;;;;;;6208582;23;20220;-85
2022/05/16 00:04:55;;;;;;;0.10;0.10;;;;;;;;;;6199439;23;20175;-84
2022/05/16 00:07:22;;;;;;;0.10;0.10;;;;;;;;;;6205573;23;20254;-73
2022/05/16 00:09:48;;;;;;;0.10;0.10;;;;;;;;;;6195592;23;20179;-72
2022/05/16 00:12:15;;;;;;;0.10;0.10;;;;;;;;;;6204722;23;20277;-74
2022/05/16 00:14:42;;;;;;;0.10;0.10;;;;;;;;;;6195416;23;20484;-73
2022/05/16 00:17:09;;;;;;;0.00;0.00;;;;;;;;;;6204741;23;20270;-72
2022/05/16 00:19:35;;;;;;;0.10;0.10;;;;;;;;;;6195613;23;20182;-72
2022/05/16 00:22:03;;;;;;;0.10;0.10;;;;;;;;;;6203789;23;20215;-74
2022/05/16 00:24:30;;;;;;;0.10;0.10;;;;;;;;;;6195888;23;20244;-72
2022/05/16 00:26:56;;;;;;;0.10;0.10;;;;;;;;;;6202256;23;20281;-74
2022/05/16 00:29:23;;;;;;;0.10;0.10;;;;;;;;;;6197362;23;20483;-72
2022/05/16 00:31:49;;;;;;;0.00;0.00;;;;;;;;;;6201291;23;20423;-73
2022/05/16 00:34:16;;;;;;;0.10;0.10;;;;;;;;;;6198104;23;20245;-73
2022/05/16 00:36:47;;;;;;;0.17;0.17;;;;;;;;;;6200376;23;20217;-73
2022/05/16 00:39:15;;;;;;;0.10;0.10;;;;;;;;;;6198709;23;20504;-74
2022/05/16 00:41:41;;;;;;;0.10;0.10;;;;;;;;;;6199529;23;20215;-73
2022/05/16 00:44:07;;;;;;;0.10;0.10;;;;;;;;;;6200097;23;20175;-72
2022/05/16 00:46:33;;;;;;;0.00;0.00;;;;;;;;;;6197869;23;20259;-72
2022/05/16 00:49:01;;;;;;;0.00;0.00;;;;;;;;;;6201540;23;20179;-72
2022/05/16 00:51:30;;;;;;;0.10;0.10;;;;;;;;;;6196660;23;20268;-72
2022/05/16 00:53:57;;;;;;;0.10;0.10;;;;;;;;;;6202206;23;20186;-73
2022/05/16 00:56:26;;;;;;;0.00;0.00;;;;;;;;;;6195982;23;20540;-72
2022/05/16 00:58:53;;;;;;;0.10;0.10;;;;;;;;;;6202958;23;20200;-72
2022/05/16 01:06:48;;;;;;;0.10;0.10;;;;;;;;;;6200741;23;20230;-73
2022/05/16 01:09:14;;;;;;;0.03;0.03;;;;;;;;;;6198492;23;20487;-74
2022/05/16 01:11:42;;;;;;;0.10;0.10;;;;;;;;;;6198911;23;20259;-72
2022/05/16 01:14:08;;;;;;;0.10;0.10;;;;;;;;;;6199733;23;20227;-72
2022/05/16 01:16:35;;;;;;;0.10;0.10;;;;;;;;;;6197920;23;20212;-73
2022/05/16 01:19:01;;;;;;;0.10;0.10;;;;;;;;;;6201044;23;20174;-73
2022/05/16 01:21:31;;;;;;;0.10;0.10;;;;;;;;;;6196270;23;20222;-74
2022/05/16 01:24:01;;;;;;;0.10;0.10;;;;;;;;;;6201554;23;20208;-72
2022/05/16 01:26:29;;;;;;;0.10;0.10;;;;;;;;;;6195373;23;20209;-73
2022/05/16 01:28:56;;;;;;;0.10;0.10;;;;;;;;;;6202561;23;20173;-73
2022/05/16 01:31:22;;;;;;;0.10;0.10;;;;;;;;;;6195218;23;20407;-74
2022/05/16 01:33:49;;;;;;;0.10;0.10;;;;;;;;;;6203462;23;20173;-74
2022/05/16 01:36:16;;;;;;;0.10;0.10;;;;;;;;;;6194195;23;20211;-74
2022/05/16 01:38:42;;;;;;;0.10;0.10;;;;;;;;;;6204535;23;20236;-73
2022/05/16 01:41:11;;;;;;;0.10;0.10;;;;;;;;;;6192828;23;20452;-75
2022/05/16 01:43:39;;;;;;;0.10;0.10;;;;;;;;;;6205316;23;20191;-73
2022/05/16 01:46:06;;;;;;;0.10;0.10;;;;;;;;;;6192223;23;20258;-74
2022/05/16 01:48:32;;;;;;;0.10;0.10;;;;;;;;;;6208217;23;20214;-73
2022/05/16 01:50:59;;;;;;;0.10;0.10;;;;;;;;;;6192892;23;20545;-75
2022/05/16 01:53:26;;;;;;;0.10;0.10;;;;;;;;;;6209845;23;20180;-73
2022/05/16 01:55:52;;;;;;;0.10;0.10;;;;;;;;;;6190916;23;20589;-73
2022/05/16 01:58:20;;;;;;;0.10;0.10;;;;;;;;;;6210997;23;20402;-72
2022/05/16 02:00:46;;;;;;;0.10;0.10;;;;;;;;;;6190180;23;20212;-72
2022/05/16 02:03:13;;;;;;;0.00;0.00;;;;;;;;;;6211707;23;20180;-73
2022/05/16 02:05:41;;;;;;;0.10;0.10;;;;;;;;;;6188775;23;20234;-73
2022/05/16 02:08:08;;;;;;;0.10;0.10;;;;;;;;;;6213061;23;20192;-72
2022/05/16 02:10:34;;;;;;;0.10;0.10;;;;;;;;;;6187973;23;20222;-72
2022/05/16 02:13:03;;;;;;;0.10;0.10;;;;;;;;;;6214446;23;20437;-73
2022/05/16 02:15:34;;;;;;;0.10;0.10;;;;;;;;;;6186881;23;20526;-71
2022/05/16 02:18:00;;;;;;;0.03;0.03;;;;;;;;;;6215017;23;20222;-74
2022/05/16 02:20:27;;;;;;;0.10;0.10;;;;;;;;;;6186258;23;20346;-73
2022/05/16 02:25:38;;;;;;;0.10;0.10;;;;;;;;;;6188654;23;20343;-73
2022/05/16 02:28:05;;;;;;;0.10;0.10;;;;;;;;;;6213302;23;20185;-73
2022/05/16 02:30:34;;;;;;;0.10;0.10;;;;;;;;;;6187548;23;20284;-73
2022/05/16 02:33:01;;;;;;;0.10;0.10;;;;;;;;;;6214499;23;20185;-73
2022/05/16 02:35:27;;;;;;;0.10;0.10;;;;;;;;;;6186249;23;20428;-74
2022/05/16 02:37:53;;;;;;;0.10;0.10;;;;;;;;;;6215398;23;20181;-72
2022/05/16 02:40:19;;;;;;;0.10;0.10;;;;;;;;;;6184523;23;20190;-74
2022/05/16 02:42:46;;;;;;;0.10;0.10;;;;;;;;;;6217654;23;20173;-73
2022/05/16 02:45:12;;;;;;;0.10;0.10;;;;;;;;;;6183195;23;20184;-73
2022/05/16 02:47:40;;;;;;;0.10;0.10;;;;;;;;;;6218179;23;20225;-74
2022/05/16 02:50:07;;;;;;;0.10;0.10;;;;;;;;;;6191090;23;20173;-75
2022/05/16 02:52:33;;;;;;;0.10;0.10;;;;;;;;;;6219537;23;20504;-72
2022/05/16 02:55:01;;;;;;;0.10;0.10;;;;;;;;;;6196077;23;20207;-72
2022/05/16 02:57:27;;;;;;;0.10;0.10;;;;;;;;;;6205516;23;20211;-73
2022/05/16 02:59:54;;;;;;;0.10;0.10;;;;;;;;;;6195837;23;20184;-72
2022/05/16 03:02:20;;;;;;;0.10;0.10;;;;;;;;;;6205188;23;20218;-71
2022/05/16 03:04:48;;;;;;;0.10;0.10;;;;;;;;;;6196277;23;20176;-73
2022/05/16 03:07:14;;;;;;;0.10;0.10;;;;;;;;;;6205357;23;20206;-73
2022/05/16 03:09:41;;;;;;;0.10;0.10;;;;;;;;;;6196170;23;20207;-73
2022/05/16 03:12:08;;;;;;;0.10;0.10;;;;;;;;;;6205100;23;20388;-72
2022/05/16 03:14:35;;;;;;;0.10;0.10;;;;;;;;;;6196095;23;20186;-72
2022/05/16 03:17:02;;;;;;;0.10;0.10;;;;;;;;;;6204371;23;20211;-71
2022/05/16 03:19:28;;;;;;;0.10;0.10;;;;;;;;;;6196360;23;20184;-71
2022/05/16 03:21:56;;;;;;;0.10;0.10;;;;;;;;;;6184764;23;20215;-73
2022/05/16 03:24:22;;;;;;;0.10;0.10;;;;;;;;;;6197528;23;20219;-72
2022/05/16 03:26:49;;;;;;;0.10;0.10;;;;;;;;;;6202031;23;20207;-72
2022/05/16 03:29:16;;;;;;;0.10;0.10;;;;;;;;;;6198684;23;20372;-74
2022/05/16 03:31:42;;;;;;;0.10;0.10;;;;;;;;;;6200601;23;20451;-73
2022/05/16 03:34:10;;;;;;;0.10;0.10;;;;;;;;;;6199973;23;20184;-72
2022/05/16 03:36:36;;;;;;;0.10;0.10;;;;;;;;;;6199435;23;20437;-72
2022/05/16 03:41:49;;;;;;;0.10;0.10;;;;;;;;;;6201683;23;20222;-72
2022/05/16 03:44:15;;;;;;;0.10;0.10;;;;;;;;;;6198666;23;20180;-73
2022/05/16 03:46:41;;;;;;;0.10;0.10;;;;;;;;;;6200422;23;20529;-72
2022/05/16 03:49:07;;;;;;;0.10;0.10;;;;;;;;;;6199944;23;20181;-72
2022/05/16 03:51:34;;;;;;;0.10;0.10;;;;;;;;;;6198842;23;20480;-72
2022/05/16 03:54:00;;;;;;;0.10;0.10;;;;;;;;;;6201430;23;20175;-73
2022/05/16 03:56:29;;;;;;;0.10;0.10;;;;;;;;;;6197051;23;20212;-72
2022/05/16 03:58:56;;;;;;;0.10;0.10;;;;;;;;;;6202856;23;20238;-72
2022/05/16 04:01:23;;;;;;;0.10;0.10;;;;;;;;;;6196369;23;20227;-72
2022/05/16 04:03:49;;;;;;;0.10;0.10;;;;;;;;;;6203253;23;20235;-73
2022/05/16 04:06:16;;;;;;;0.10;0.10;;;;;;;;;;6194776;23;20234;-72
2022/05/16 04:08:43;;;;;;;0.10;0.10;;;;;;;;;;6204186;23;20252;-72
2022/05/16 04:11:10;;;;;;;0.10;0.10;;;;;;;;;;6193698;23;20215;-72
2022/05/16 04:13:38;;;;;;;0.10;0.10;;;;;;;;;;6206173;23;20452;-71
2022/05/16 04:16:05;;;;;;;0.10;0.10;;;;;;;;;;6192521;23;20295;-72
2022/05/16 04:18:32;;;;;;;0.10;0.10;;;;;;;;;;6207467;23;20368;-73
2022/05/16 04:20:58;;;;;;;0.10;0.10;;;;;;;;;;6191380;23;20253;-71
2022/05/16 04:23:25;;;;;;;0.20;0.20;;;;;;;;;;6208327;23;20183;-72
2022/05/16 04:25:51;;;;;;;0.10;0.10;;;;;;;;;;6189615;23;20250;-73
2022/05/16 04:28:18;;;;;;;0.10;0.10;;;;;;;;;;6210207;23;20292;-72
2022/05/16 04:30:46;;;;;;;0.10;0.10;;;;;;;;;;6188029;23;20226;-74
2022/05/16 04:33:12;;;;;;;0.10;0.10;;;;;;;;;;6211186;23;20443;-74
2022/05/16 04:35:38;;;;;;;0.10;0.10;;;;;;;;;;6187288;23;20420;-72
2022/05/16 04:38:05;;;;;;;0.10;0.10;;;;;;;;;;6212781;23;20168;-72
2022/05/16 04:40:31;;;;;;;0.10;0.10;;;;;;;;;;6185504;23;20221;-74
2022/05/16 04:42:57;;;;;;;0.10;0.10;;;;;;;;;;6213845;23;20238;-73
2022/05/16 04:45:25;;;;;;;0.10;0.10;;;;;;;;;;6184412;23;20175;-73
2022/05/16 04:47:53;;;;;;;0.10;0.10;;;;;;;;;;6214831;23;20249;-73
2022/05/16 04:50:21;;;;;;;0.10;0.10;;;;;;;;;;6182712;23;20220;-72
2022/05/16 04:52:47;;;;;;;0.10;0.10;;;;;;;;;;6216133;23;20409;-73
2022/05/16 04:55:14;;;;;;;4.13;4.00;;;;;;;;;;6182267;23;20177;-72
2022/05/16 04:57:41;;;;;;;0.10;0.10;;;;;;;;;;6216441;23;20183;-72
2022/05/16 05:00:09;;;;;;;0.20;0.20;;;;;;;;;;6181991;23;20190;-73
2022/05/16 05:02:35;;;;;;;0.10;0.10;;;;;;;;;;6217982;23;20184;-73
2022/05/16 05:05:03;;;;;;;0.10;0.10;;;;;;;;;;6194876;23;20176;-72
2022/05/16 05:07:30;;;;;;;0.10;0.10;;;;;;;;;;6178934;23;20364;-77
2022/05/16 05:15:25;;;;;;;0.10;0.10;;;;;;;;;;6210057;23;20260;-77
2022/05/16 05:17:51;;;;;;;0.10;0.10;;;;;;;;;;6224085;23;20271;-78
2022/05/16 05:20:19;;;;;;;0.03;0.03;;;;;;;;;;6209322;23;20177;-77
2022/05/16 05:22:46;;;;;;;0.10;0.10;;;;;;;;;;6223527;23;20187;-79
2022/05/16 05:25:15;;;;;;;0.10;0.10;;;;;;;;;;6210147;23;20188;-76
2022/05/16 05:27:42;;;;;;;0.10;0.10;;;;;;;;;;6223361;23;20201;-78
2022/05/16 05:30:11;;;;;;;0.10;0.10;;;;;;;;;;6209894;23;20238;-76
2022/05/16 05:32:38;;;;;;;0.10;0.10;;;;;;;;;;6223612;23;20574;-77
2022/05/16 05:35:05;;;;;;;0.10;0.10;;;;;;;;;;6225008;23;20227;-76
2022/05/16 05:37:33;;;;;;;0.10;0.10;;;;;;;;;;6183625;23;20523;-76
2022/05/16 05:40:01;;;;;;;0.10;0.10;;;;;;;;;;6225415;23;20457;-76
2022/05/16 05:42:27;;;;;;;0.10;0.10;;;;;;;;;;6208432;23;20403;-77
2022/05/16 05:44:53;;;;;;;0.10;0.10;;;;;;;;;;6225301;23;20227;-78
2022/05/16 05:47:20;;;;;;;0.10;0.10;;;;;;;;;;6208293;23;20263;-78
2022/05/16 05:49:47;;;;;;;0.10;0.10;;;;;;;;;;6225151;23;20374;-78
2022/05/16 05:52:15;;;;;;;0.00;0.00;;;;;;;;;;6208356;23;20442;-77
2022/05/16 05:54:43;;;;;;;0.10;0.10;;;;;;;;;;6224697;23;20181;-77
2022/05/16 05:57:09;;;;;;;0.10;0.10;;;;;;;;;;6207840;23;20274;-77
2022/05/16 05:59:35;;;;;;;0.10;0.10;;;;;;;;;;6224052;23;20250;-77
2022/05/16 06:02:02;;;;;;;0.10;0.10;;;;;;;;;;6208286;23;20216;-77
2022/05/16 06:04:28;;;;;;;0.10;0.10;;;;;;;;;;6224738;23;20397;-76
2022/05/16 06:06:54;;;;;;;0.10;0.10;;;;;;;;;;6208212;23;20214;-78
2022/05/16 06:09:21;;;;;;;0.10;0.10;;;;;;;;;;6224373;23;20414;-78
2022/05/16 06:11:49;;;;;;;0.10;0.10;;;;;;;;;;6208463;23;20214;-77
2022/05/16 06:14:15;;;;;;;0.10;0.10;;;;;;;;;;6224438;23;20208;-77
2022/05/16 06:16:41;;;;;;;0.10;0.10;;;;;;;;;;6208363;23;20521;-76
2022/05/16 06:19:08;;;;;;;0.10;0.10;;;;;;;;;;6224384;23;20179;-79
2022/05/16 06:21:34;;;;;;;0.10;0.10;;;;;;;;;;6208753;23;20277;-77
2022/05/16 06:24:00;;;;;;;0.10;0.10;;;;;;;;;;6223830;23;20222;-77
2022/05/16 06:26:28;;;;;;;0.10;0.10;;;;;;;;;;6208575;23;20217;-78
2022/05/16 06:28:56;;;;;;;0.10;0.10;;;;;;;;;;6223881;23;20523;-78
2022/05/16 06:31:22;;;;;;;0.00;0.00;;;;;;;;;;6208642;23;20221;-77
2022/05/16 06:33:49;;;;;;;0.10;0.10;;;;;;;;;;6225686;23;20178;-79
2022/05/16 06:36:16;;;;;;;0.10;0.10;;;;;;;;;;6210819;23;20263;-77
2022/05/16 06:38:42;;;;;;;0.10;0.10;;;;;;;;;;6226155;23;20178;-78
2022/05/16 06:41:09;;;;;;;0.10;0.10;;;;;;;;;;6210705;23;20555;-78
2022/05/16 06:43:35;;;;;;;0.00;0.00;;;;;;;;;;6225649;23;20178;-78
2022/05/16 06:46:03;;;;;;;0.10;0.10;;;;;;;;;;6210655;23;20229;-78
2022/05/16 06:48:30;;;;;;;0.00;0.00;;;;;;;;;;6225271;23;20210;-78
2022/05/16 06:50:56;;;;;;;0.10;0.10;;;;;;;;;;6210530;23;20214;-76
2022/05/16 06:53:24;;;;;;;0.10;0.10;;;;;;;;;;6225728;23;20471;-78
2022/05/16 06:55:51;;;;;;;0.10;0.10;;;;;;;;;;6210888;23;20245;-79
2022/05/16 06:58:18;;;;;;;0.00;0.00;;;;;;;;;;6225530;23;20178;-68
2022/05/16 07:00:44;;;;;;;0.10;0.10;;;;;;;;;;6210498;23;20297;-67
2022/05/16 07:03:12;;;;;;;0.10;0.10;;;;;;;;;;6225335;23;20398;-68
2022/05/16 07:05:38;;;;;;;0.07;0.07;;;;;;;;;;6210975;23;20214;-67
2022/05/16 07:08:05;;;;;;;0.07;0.07;;;;;;;;;;6225098;23;20208;-68
2022/05/16 07:10:32;;;;;;;0.10;0.10;;;;;;;;;;6210764;23;20211;-68
2022/05/16 07:12:58;;;;;;;0.07;0.07;;;;;;;;;;6224649;23;20203;-67
2022/05/16 07:15:24;;;;;;;0.00;0.00;;;;;;;;;;6211214;23;20220;-67
2022/05/16 07:17:51;;;;;;;0.10;0.10;;;;;;;;;;6225335;23;20164;-66
2022/05/16 07:20:19;;;;;;;0.00;0.00;;;;;;;;;;6211260;23;20192;-67
2022/05/16 07:22:46;;;;;;;0.03;0.03;;;;;;;;;;6224961;23;20164;-68
2022/05/16 07:25:12;;;;;;;0.00;0.00;;;;;;;;;;6211009;23;20196;-67
2022/05/16 07:30:24;;;;;;;0.00;0.00;;;;;;;;;;6211233;23;20250;-68
2022/05/16 07:32:51;;;;;;;0.00;0.00;;;;;;;;;;6225447;23;20168;-69
2022/05/16 07:35:22;;;;;;;0.10;0.10;;;;;;;;;;6210824;23;20184;-67
2022/05/16 07:37:48;;;;;;;0.00;0.00;;;;;;;;;;6225296;23;20314;-69
2022/05/16 07:40:16;;;;;;;0.00;0.00;;;;;;;;;;6210830;23;20254;-68
2022/05/16 07:42:42;;;;;;;0.00;0.00;;;;;;;;;;6224584;23;20465;-68
2022/05/16 07:45:09;;;;;;;0.00;0.00;;;;;;;;;;6210483;23;20229;-69
2022/05/16 07:47:36;;;;;;;0.05;0.05;;;;;;;;;;6224552;23;20182;-68
2022/05/16 07:50:02;;;;;;;0.10;0.10;;;;;;;;;;6225995;23;20210;-68
2022/05/16 07:52:30;;;;;;;0.03;0.03;;;;;;;;;;6209503;23;20271;-68
2022/05/16 07:54:57;;;;;;;0.00;0.00;;;;;;;;;;6225459;23;20246;-68
2022/05/16 07:57:23;;;;;;;0.00;0.00;;;;;;;;;;6209553;23;20208;-67
2022/05/16 07:59:50;;;;;;;0.05;0.05;;;;;;;;;;6226061;23;20200;-67
2022/05/16 08:02:16;;;;;;;0.10;0.10;;;;;;;;;;6209376;23;20221;-68
2022/05/16 08:04:42;;;;;;;0.00;0.00;;;;;;;;;;6226075;23;20200;-68
2022/05/16 08:07:09;;;;;;;0.00;0.00;;;;;;;;;;6209455;23;20213;-68
2022/05/16 08:12:24;;;;;;;0.00;0.00;;;;;;;;;;6209240;23;20257;-67
2022/05/16 08:14:51;;;;;;;0.00;0.00;;;;;;;;;;6226028;23;20379;-67
2022/05/16 08:17:17;;;;;;;0.10;0.10;;;;;;;;;;6209330;23;20318;-68
2022/05/16 08:19:43;;;;;;;0.00;0.00;;;;;;;;;;6226118;23;20170;-69
2022/05/16 08:22:10;;;;;;;0.00;0.00;;;;;;;;;;6209273;23;20276;-68
2022/05/16 08:24:37;;;;;;;0.00;0.00;;;;;;;;;;6226011;23;20174;-68
2022/05/16 08:27:04;;;;;;;0.03;0.03;;;;;;;;;;6209373;23;20282;-68
2022/05/16 08:29:31;;;;;;;0.05;0.05;;;;;;;;;;6225866;23;20205;-68
2022/05/16 08:31:58;;;;;;;0.08;0.08;;;;;;;;;;6208919;23;20217;-68
2022/05/16 08:34:24;;;;;;;0.00;0.00;;;;;;;;;;6225297;23;20166;-67
2022/05/16 08:39:55;;;;;;;0.00;0.00;;;;;;;;;;6186844;23;20200;-77
2022/05/16 08:42:23;;;;;;;0.00;0.00;;;;;;;;;;6208416;23;20516;-69
2022/05/16 08:44:55;;;;;;;0.10;0.10;;;;;;;;;;6225243;23;20167;-67
2022/05/16 08:47:26;;;;;;;0.00;0.00;;;;;;;;;;6209023;23;20454;-68
2022/05/16 08:49:54;;;;;;;0.00;0.00;;;;;;;;;;6225700;23;20207;-68
2022/05/16 08:52:27;;;;;;;0.00;0.00;;;;;;;;;;6208892;23;20273;-67
2022/05/16 08:54:58;;;;;;;0.00;0.00;;;;;;;;;;6225884;23;20254;-67
2022/05/16 08:57:28;;;;;;;0.00;0.00;;;;;;;;;;6209347;23;20532;-67
2022/05/16 08:59:57;;;;;;;0.00;0.00;;;;;;;;;;6225048;23;20484;-67
2022/05/16 09:02:27;;;;;;;0.00;0.00;;;;;;;;;;6208987;23;20240;-68
2022/05/16 09:04:58;;;;;;;0.10;0.10;;;;;;;;;;6225467;23;20202;-66
2022/05/16 09:07:27;;;;;;;0.00;0.00;;;;;;;;;;6209051;23;20259;-69
2022/05/16 09:09:58;;;;;;;0.00;0.00;;;;;;;;;;6224715;23;20442;-65
2022/05/16 09:12:26;;;;;;;0.10;0.10;;;;;;;;;;6208672;23;20218;-67
2022/05/16 09:14:58;;;;;;;0.10;0.10;;;;;;;;;;6225653;23;20238;-66
2022/05/16 09:17:29;;;;;;;0.00;0.00;;;;;;;;;;6208963;23;20223;-67
2022/05/16 09:20:16;;;;;;;0.00;0.00;;;;;;;;;;6225479;23;20182;-67
2022/05/16 09:22:44;;;;;;;0.00;0.00;;;;;;;;;;6209711;23;20229;-66
2022/05/16 09:25:14;;;;;;;0.00;0.00;;;;;;;;;;6209626;23;20398;-66
2022/05/16 09:30:26;;;;;;;0.00;0.00;;;;;;;;;;6209853;23;20676;-67
2022/05/16 09:32:55;;;;;;;0.00;0.00;;;;;;;;;;6223681;23;20197;-67
2022/05/16 09:35:29;;;;;;;0.00;0.00;;;;;;;;;;6209857;23;20208;-67
2022/05/16 09:37:58;;;;;;;0.00;0.00;;;;;;;;;;6224121;23;20369;-66
2022/05/16 09:40:27;;;;;;;0.00;0.00;;;;;;;;;;6209951;23;20182;-67
2022/05/16 09:42:53;;;;;;;0.03;0.03;;;;;;;;;;6224165;23;20411;-66
2022/05/16 09:45:23;;;;;;;0.00;0.00;;;;;;;;;;6209724;23;20236;-67
2022/05/16 09:47:49;;;;;;;0.00;0.00;;;;;;;;;;6223635;23;20224;-67
2022/05/16 09:50:19;;;;;;;0.00;0.00;;;;;;;;;;6209684;23;20226;-68
2022/05/16 09:52:48;;;;;;;0.00;0.00;;;;;;;;;;6223757;23;20258;-67
2022/05/16 09:55:23;;;;;;;0.00;0.00;;;;;;;;;;6209964;23;20180;-67
2022/05/16 09:57:55;;;;;;;0.00;0.00;;;;;;;;;;6223793;23;20371;-67
2022/05/16 10:00:24;;;;;;;0.00;0.00;;;;;;;;;;6210025;23;20164;-67
2022/05/16 10:02:55;;;;;;;0.32;0.32;;;;;;;;;;6223530;23;20171;-66
2022/05/16 10:05:24;;;;;;;0.00;0.00;;;;;;;;;;6210043;23;20226;-67
2022/05/16 10:07:52;;;;;;;0.00;0.00;;;;;;;;;;6224744;23;20390;-67
2022/05/16 10:10:20;;;;;;;0.00;0.00;;;;;;;;;;6211533;23;20192;-66
2022/05/16 10:12:47;;;;;;;0.00;0.00;;;;;;;;;;6225317;23;20230;-68
2022/05/16 10:15:15;;;;;;;0.00;0.00;;;;;;;;;;6212174;23;20212;-68
2022/05/16 10:17:43;;;;;;;0.00;0.00;;;;;;;;;;6225926;23;20499;-67
2022/05/16 10:20:13;;;;;;;0.00;0.00;;;;;;;;;;6211845;23;20202;-66
2022/05/16 10:22:39;;;;;;;0.00;0.00;;;;;;;;;;6225463;23;20199;-67
2022/05/16 10:25:08;;;;;;;0.00;0.00;;;;;;;;;;6226723;23;20198;-67
2022/05/16 10:27:36;;;;;;;0.00;0.00;;;;;;;;;;6185433;23;20192;-66
2022/05/16 10:30:05;;;;;;;0.00;0.00;;;;;;;;;;6226847;23;20251;-67
2022/05/16 10:35:22;;;;;;;0.03;0.03;;;;;;;;;;6185513;23;20171;-68
2022/05/16 10:37:50;;;;;;;0.00;0.00;;;;;;;;;;6217497;23;20200;-68
2022/05/16 10:40:22;;;;;;;0.00;0.00;;;;;;;;;;6184366;23;20264;-68
2022/05/16 10:42:51;;;;;;;0.00;0.00;;;;;;;;;;6217106;23;20164;-67
2022/05/16 10:45:18;;;;;;;0.00;0.00;;;;;;;;;;6184267;23;20247;-67
2022/05/16 10:47:50;;;;;;;0.00;0.00;;;;;;;;;;6218262;23;20171;-67
2022/05/16 10:50:19;;;;;;;0.00;0.00;;;;;;;;;;6184308;23;20202;-67
2022/05/16 10:52:49;;;;;;;0.00;0.00;;;;;;;;;;6217695;23;20204;-67
2022/05/16 10:55:16;;;;;;;0.00;0.00;;;;;;;;;;6184355;23;20215;-67
2022/05/16 10:58:02;;;;;;;0.03;0.03;;;;;;;;;;6217690;23;20175;-69
2022/05/16 11:00:34;;;;;;;0.00;0.00;;;;;;;;;;6186768;23;20223;-66
2022/05/16 11:03:10;;;;;;;0.10;0.10;;;;;;;;;;6214392;23;20180;-66
2022/05/16 11:05:42;;;;;;;0.00;0.00;;;;;;;;;;6184726;23;20216;-66
2022/05/16 11:08:18;;;;;;;0.08;0.08;;;;;;;;;;6214434;23;20181;-68
2022/05/16 11:10:49;;;;;;;0.00;0.00;;;;;;;;;;6189090;23;20244;-67
2022/05/16 11:13:19;;;;;;;0.00;0.00;;;;;;;;;;6211733;23;20239;-67
2022/05/16 11:15:49;;;;;;;0.00;0.00;;;;;;;;;;6189617;23;20249;-70
2022/05/16 11:18:23;;;;;;;0.00;0.00;;;;;;;;;;6210851;23;20188;-69
2022/05/16 11:20:52;;;;;;;0.00;0.00;;;;;;;;;;6190222;23;20453;-66
2022/05/16 11:23:24;;;;;;;0.00;0.00;;;;;;;;;;6210190;23;20183;-65
2022/05/16 11:25:53;;;;;;;0.00;0.00;;;;;;;;;;6190303;23;20352;-68
2022/05/16 11:28:25;;;;;;;0.00;0.00;;;;;;;;;;6209977;23;20223;-63
2022/05/16 11:30:54;;;;;;;0.00;0.00;;;;;;;;;;6190155;23;20216;-62
2022/05/16 11:33:29;;;;;;;0.00;0.00;;;;;;;;;;6209553;23;20294;-60
2022/05/16 11:35:56;;;;;;;0.00;0.00;;;;;;;;;;6191095;23;20210;-63
2022/05/16 11:38:40;;;;;;;0.00;0.00;;;;;;;;;;6209193;23;20181;-61
2022/05/16 11:41:18;;;;;;;0.10;0.10;;;;;;;;;;6193443;23;20269;-61
2022/05/16 11:43:46;;;;;;;0.00;0.00;;;;;;;;;;6204766;23;20184;-60
2022/05/16 11:46:20;;;;;;;0.00;0.00;;;;;;;;;;6194391;23;20211;-60
2022/05/16 11:48:52;;;;;;;0.00;0.00;;;;;;;;;;6204236;23;20226;-61
2022/05/16 11:51:25;;;;;;;0.10;0.10;;;;;;;;;;6195585;23;20279;-59
2022/05/16 11:53:53;;;;;;;0.00;0.00;;;;;;;;;;6203528;23;20261;-60
2022/05/16 12:02:11;;;;;;;0.00;0.00;;;;;;;;;;6203255;23;20221;-61
2022/05/16 12:04:40;;;;;;;0.00;0.00;;;;;;;;;;6195938;23;20183;-65
2022/05/16 12:07:13;;;;;;;0.00;0.00;;;;;;;;;;6204556;23;20315;-64
2022/05/16 12:09:50;;;;;;;0.00;0.00;;;;;;;;;;6195766;23;20204;-64
2022/05/16 12:12:28;;;;;;;0.00;0.00;;;;;;;;;;6204627;23;20211;-64
2022/05/16 12:15:10;;;;;;;0.00;0.00;;;;;;;;;;6195879;23;20225;-65
2022/05/16 12:17:38;;;;;;;0.00;0.00;;;;;;;;;;6179071;23;20188;-64
2022/05/16 12:20:09;;;;;;;0.00;0.00;;;;;;;;;;6194420;23;20402;-63
2022/05/16 12:22:47;;;;;;;0.00;0.00;;;;;;;;;;6217614;23;20174;-65
2022/05/16 12:25:27;;;;;;;0.00;0.00;;;;;;;;;;6182375;23;20276;-64
2022/05/16 12:28:16;;;;;;;0.00;0.00;;;;;;;;;;6214774;23;20196;-64
2022/05/16 12:30:43;;;;;;;0.00;0.00;;;;;;;;;;6187952;23;20254;-64
2022/05/16 12:33:27;;;;;;;0.00;0.00;;;;;;;;;;6211172;23;20418;-65
2022/05/16 12:35:56;;;;;;;0.00;0.00;;;;;;;;;;6190171;23;20227;-64
2022/05/16 12:38:23;;;;;;;0.00;0.00;;;;;;;;;;6208558;23;20187;-65
2022/05/16 12:41:07;;;;;;;0.00;0.00;;;;;;;;;;6189842;23;20547;-65
2022/05/16 12:43:39;;;;;;;0.00;0.00;;;;;;;;;;6206385;23;20224;-65
2022/05/16 12:46:29;;;;;;;0.00;0.00;;;;;;;;;;6192309;23;20212;-64
2022/05/16 12:49:05;;;;;;;0.00;0.00;;;;;;;;;;6179494;23;20181;-65
2022/05/16 12:51:44;;;;;;;0.10;0.10;;;;;;;;;;6197404;23;20211;-64
2022/05/16 12:54:44;;;;;;;0.00;0.00;;;;;;;;;;6198971;23;20492;-65
2022/05/16 12:57:25;;;;;;;0.00;0.00;;;;;;;;;;6203873;23;20254;-64
2022/05/16 12:59:57;;;;;;;0.00;0.00;;;;;;;;;;6194816;23;20215;-64
2022/05/16 13:02:26;;;;;;;0.20;0.20;;;;;;;;;;6204222;23;20418;-64
2022/05/16 13:05:01;;;;;;;0.00;0.00;;;;;;;;;;6194467;23;20376;-65
2022/05/16 13:07:33;;;;;;;0.00;0.00;;;;;;;;;;6204101;23;20212;-64
2022/05/16 13:10:03;;;;;;;0.00;0.00;;;;;;;;;;6195177;23;20205;-65
2022/05/16 13:12:40;;;;;;;0.00;0.00;;;;;;;;;;6178377;23;20185;-65
2022/05/16 13:15:09;;;;;;;0.00;0.00;;;;;;;;;;6191127;23;20168;-63
2022/05/16 13:17:38;;;;;;;0.00;0.00;;;;;;;;;;6217982;23;20476;-64
2022/05/16 13:20:06;;;;;;;0.00;0.00;;;;;;;;;;6193939;23;20226;-63
2022/05/16 13:22:34;;;;;;;0.00;0.00;;;;;;;;;;6217997;23;20203;-63
2022/05/16 13:25:00;;;;;;;0.00;0.00;;;;;;;;;;6195117;23;20251;-64
2022/05/16 13:30:13;;;;;;;0.00;0.00;;;;;;;;;;6181323;23;20188;-64
2022/05/16 13:32:40;;;;;;;0.00;0.00;;;;;;;;;;6216217;23;20203;-63
2022/05/16 13:35:07;;;;;;;0.00;0.00;;;;;;;;;;6180713;23;20556;-66
2022/05/16 13:37:42;;;;;;;0.00;0.00;;;;;;;;;;6217451;23;20181;-65
2022/05/16 13:40:10;;;;;;;0.00;0.00;;;;;;;;;;6181134;23;20165;-63
2022/05/16 13:42:38;;;;;;;0.00;0.00;;;;;;;;;;6218209;23;20169;-64
2022/05/16 13:45:05;;;;;;;0.00;0.00;;;;;;;;;;6197183;23;20219;-64
2022/05/16 13:47:32;;;;;;;0.00;0.00;;;;;;;;;;6180362;23;20224;-65
2022/05/16 13:49:59;;;;;;;0.00;0.00;;;;;;;;;;6197204;23;20204;-65
2022/05/16 13:52:26;;;;;;;0.00;0.00;;;;;;;;;;6205899;23;20440;-63
2022/05/16 13:54:55;;;;;;;0.00;0.00;;;;;;;;;;6196518;23;20204;-64
2022/05/16 13:57:23;;;;;;;0.00;0.00;;;;;;;;;;6205863;23;20385;-66
2022/05/16 13:59:50;;;;;;;0.00;0.00;;;;;;;;;;6196973;23;20177;-64
2022/05/16 14:02:25;;;;;;;0.00;0.00;;;;;;;;;;6205474;23;20211;-65
2022/05/16 14:04:52;;;;;;;0.00;0.00;;;;;;;;;;6196065;23;20408;-64
2022/05/16 14:07:20;;;;;;;0.00;0.00;;;;;;;;;;6205480;23;20219;-66
2022/05/16 14:09:50;;;;;;;0.00;0.00;;;;;;;;;;6196474;23;20509;-65
2022/05/16 14:12:19;;;;;;;0.10;0.10;;;;;;;;;;6205437;23;20226;-65
2022/05/16 14:14:47;;;;;;;0.10;0.10;;;;;;;;;;6196569;23;20345;-64
2022/05/16 14:17:28;;;;;;;0.00;0.00;;;;;;;;;;6205509;23;20235;-64
2022/05/16 14:19:55;;;;;;;0.00;0.00;;;;;;;;;;6196237;23;20382;-65
2022/05/16 14:22:27;;;;;;;0.00;0.00;;;;;;;;;;6205411;23;20443;-64
2022/05/16 14:25:00;;;;;;;0.00;0.00;;;;;;;;;;6196804;23;20185;-64
2022/05/16 14:27:35;;;;;;;0.00;0.00;;;;;;;;;;6205440;23;20213;-65
2022/05/16 14:30:10;;;;;;;0.00;0.00;;;;;;;;;;6196950;23;20518;-66
2022/05/16 14:32:37;;;;;;;0.00;0.00;;;;;;;;;;6180049;23;20426;-65
2022/05/16 14:35:05;;;;;;;0.00;0.00;;;;;;;;;;6196734;23;20232;-65
2022/05/16 14:37:33;;;;;;;0.00;0.00;;;;;;;;;;6205429;23;20212;-65
2022/05/16 14:40:09;;;;;;;0.00;0.00;;;;;;;;;;6196630;23;20236;-64
2022/05/16 14:42:40;;;;;;;0.00;0.00;;;;;;;;;;6179745;23;20200;-63
2022/05/16 14:45:08;;;;;;;0.00;0.00;;;;;;;;;;6185044;23;20388;-63
2022/05/16 14:47:40;;;;;;;0.00;0.00;;;;;;;;;;6219063;23;20197;-64
2022/05/16 14:50:07;;;;;;;0.08;0.08;;;;;;;;;;6183907;23;20184;-64
2022/05/16 14:52:33;;;;;;;0.00;0.00;;;;;;;;;;6219220;23;20199;-65
2022/05/16 14:55:02;;;;;;;0.00;0.00;;;;;;;;;;6196640;23;20534;-65
2022/05/16 14:57:29;;;;;;;0.00;0.00;;;;;;;;;;6204992;23;20211;-64
2022/05/16 14:59:56;;;;;;;0.10;0.10;;;;;;;;;;6196699;23;20202;-65
2022/05/16 15:05:07;;;;;;;0.00;0.00;;;;;;;;;;6182152;23;20359;-63
2022/05/16 15:07:36;;;;;;;0.00;0.00;;;;;;;;;;6218968;23;20181;-62
2022/05/16 15:10:04;;;;;;;0.00;0.00;;;;;;;;;;6195635;23;20192;-63
2022/05/16 15:12:30;;;;;;;0.00;0.00;;;;;;;;;;6179534;23;20481;-64
2022/05/16 15:14:58;;;;;;;0.00;0.00;;;;;;;;;;6195721;23;20493;-64
2022/05/16 15:17:26;;;;;;;0.00;0.00;;;;;;;;;;6205170;23;20227;-65
2022/05/16 15:19:52;;;;;;;0.00;0.00;;;;;;;;;;6196484;23;20188;-64
2022/05/16 15:22:19;;;;;;;0.00;0.00;;;;;;;;;;6205044;23;20212;-63
2022/05/16 15:24:50;;;;;;;0.00;0.00;;;;;;;;;;6195841;23;20289;-65
2022/05/16 15:27:16;;;;;;;0.00;0.00;;;;;;;;;;6205262;23;20220;-64
2022/05/16 15:29:42;;;;;;;0.00;0.00;;;;;;;;;;6196236;23;20204;-63
2022/05/16 15:32:12;;;;;;;0.00;0.00;;;;;;;;;;6204618;23;20573;-63